Time,TemperatureF,DewpointF,PressureIn,WindDirection,WindDirectionDegrees,WindSpeedMPH,WindSpeedGustMPH,Humidity,HourlyPrecipIn,Conditions,Clouds,dailyrainin,SoftwareType,DateUTC
2013-02-15 00:02:00,33.2,29.0,30.04,NW,311,0.0,0.0,85,0.00,,,0.00,weatherlink.com 1.10,2013-02-15 05:02:00,
2013-02-15 00:17:00,33.3,29.0,30.04,NW,311,0.0,0.0,85,0.00,,,0.00,weatherlink.com 1.10,2013-02-15 05:17:00,
2013-02-15 00:32:00,32.9,29.0,30.04,NW,311,0.0,0.0,86,0.00,,,0.00,weatherlink.com 1.10,2013-02-15 05:32:00,
2013-02-15 00:47:00,32.9,29.0,30.04,NW,311,0.0,0.0,86,0.00,,,0.00,weatherlink.com 1.10,2013-02-15 05:47:00,
2013-02-15 01:02:00,32.5,29.0,30.05,NW,311,0.0,0.0,87,0.00,,,0.00,weatherlink.com 1.10,2013-02-15 06:02:00,
2013-02-15 01:17:00,32.8,29.0,30.05,NW,311,0.0,0.0,87,0.00,,,0.00,weatherlink.com 1.10,2013-02-15 06:17:00,
2013-02-15 01:32:00,32.5,29.0,30.05,NW,311,0.0,0.0,87,0.00,,,0.00,weatherlink.com 1.10,2013-02-15 06:32:00,
2013-02-15 01:47:00,32.2,29.0,30.05,NW,311,0.0,0.0,88,0.00,,,0.00,weatherlink.com 1.10,2013-02-15 06:47:00,
2013-02-15 02:02:00,32.2,29.0,30.05,NW,311,0.0,0.0,89,0.00,,,0.00,weatherlink.com 1.10,2013-02-15 07:02:00,
2013-02-15 02:17:00,32.1,29.0,30.05,NW,311,0.0,0.0,89,0.00,,,0.00,weatherlink.com 1.10,2013-02-15 07:17:00,
2013-02-15 02:32:00,31.8,29.0,30.04,NW,311,0.0,0.0,89,0.00,,,0.00,weatherlink.com 1.10,2013-02-15 07:32:00,
2013-02-15 02:47:00,32.0,29.0,30.04,NW,311,0.0,0.0,90,0.00,,,0.00,weatherlink.com 1.10,2013-02-15 07:47:00,
2013-02-15 03:02:00,31.8,29.0,30.04,NW,311,0.0,0.0,90,0.00,,,0.00,weatherlink.com 1.10,2013-02-15 08:02:00,
2013-02-15 03:17:00,31.5,29.0,30.04,NW,311,0.0,0.0,90,0.00,,,0.00,weatherlink.com 1.10,2013-02-15 08:17:00,
2013-02-15 03:32:00,31.7,29.0,30.03,NW,311,0.0,0.0,91,0.00,,,0.00,weatherlink.com 1.10,2013-02-15 08:32:00,
2013-02-15 03:48:00,31.6,29.0,30.03,NW,311,0.0,0.0,90,0.00,,,0.00,weatherlink.com 1.10,2013-02-15 08:48:00,
2013-02-15 04:03:00,31.2,29.0,30.03,NW,311,0.0,0.0,90,0.00,,,0.00,weatherlink.com 1.10,2013-02-15 09:03:00,
2013-02-15 04:18:00,31.6,29.0,30.03,NW,311,0.0,0.0,91,0.00,,,0.00,weatherlink.com 1.10,2013-02-15 09:18:00,
2013-02-15 04:33:00,31.8,30.0,30.03,NW,311,0.0,0.0,91,0.00,,,0.00,weatherlink.com 1.10,2013-02-15 09:33:00,
2013-02-15 04:48:00,31.4,29.0,30.03,NW,311,0.0,0.0,91,0.00,,,0.00,weatherlink.com 1.10,2013-02-15 09:48:00,
2013-02-15 05:03:00,31.4,29.0,30.03,NW,311,0.0,0.0,91,0.00,,,0.00,weatherlink.com 1.10,2013-02-15 10:03:00,
2013-02-15 05:18:00,30.6,29.0,30.03,NW,311,0.0,0.0,92,0.00,,,0.00,weatherlink.com 1.10,2013-02-15 10:18:00,
2013-02-15 05:33:00,30.3,29.0,30.03,NW,311,0.0,0.0,93,0.00,,,0.00,weatherlink.com 1.10,2013-02-15 10:33:00,
2013-02-15 05:48:00,30.2,29.0,30.04,NW,311,0.0,0.0,93,0.00,,,0.00,weatherlink.com 1.10,2013-02-15 10:48:00,
2013-02-15 06:04:00,30.5,29.0,30.03,NW,311,0.0,0.0,93,0.00,,,0.00,weatherlink.com 1.10,2013-02-15 11:04:00,
2013-02-15 06:18:00,30.5,29.0,30.04,NW,311,0.0,0.0,93,0.00,,,0.00,weatherlink.com 1.10,2013-02-15 11:18:00,
2013-02-15 06:33:00,30.6,29.0,30.04,NW,311,0.0,0.0,93,0.00,,,0.00,weatherlink.com 1.10,2013-02-15 11:33:00,
2013-02-15 06:48:00,30.6,29.0,30.05,NW,311,0.0,0.0,93,0.00,,,0.00,weatherlink.com 1.10,2013-02-15 11:48:00,
2013-02-15 07:03:00,30.4,29.0,30.05,NW,311,0.0,0.0,93,0.00,,,0.00,weatherlink.com 1.10,2013-02-15 12:03:00,
2013-02-15 07:18:00,30.6,29.0,30.06,NW,311,0.0,0.0,93,0.00,,,0.00,weatherlink.com 1.10,2013-02-15 12:18:00,
2013-02-15 07:33:00,30.5,29.0,30.06,NW,311,0.0,0.0,92,0.00,,,0.00,weatherlink.com 1.10,2013-02-15 12:33:00,
2013-02-15 07:48:00,30.5,29.0,30.07,NW,311,0.0,0.0,93,0.00,,,0.00,weatherlink.com 1.10,2013-02-15 12:48:00,
2013-02-15 08:03:00,31.7,30.0,30.07,NW,311,0.0,0.0,93,0.00,,,0.00,weatherlink.com 1.10,2013-02-15 13:03:00,
2013-02-15 08:18:00,32.8,31.0,30.08,NW,311,0.0,0.0,91,0.00,,,0.00,weatherlink.com 1.10,2013-02-15 13:18:00,
2013-02-15 08:33:00,33.2,31.0,30.08,NW,311,0.0,0.0,91,0.00,,,0.00,weatherlink.com 1.10,2013-02-15 13:33:00,
2013-02-15 08:48:00,35.2,32.0,30.08,NW,311,0.0,0.0,87,0.00,,,0.00,weatherlink.com 1.10,2013-02-15 13:48:00,
2013-02-15 09:03:00,36.7,33.0,30.09,NW,311,0.0,0.0,85,0.00,,,0.00,weatherlink.com 1.10,2013-02-15 14:03:00,
2013-02-15 09:18:00,38.3,33.0,30.08,NW,311,0.0,1.0,82,0.00,,,0.00,weatherlink.com 1.10,2013-02-15 14:18:00,
2013-02-15 09:33:00,40.2,35.0,30.08,WNW,298,0.0,2.0,80,0.00,,,0.00,weatherlink.com 1.10,2013-02-15 14:33:00,
2013-02-15 09:48:00,42.8,36.0,30.07,WNW,298,0.0,1.0,76,0.00,,,0.00,weatherlink.com 1.10,2013-02-15 14:48:00,
2013-02-15 10:03:00,45.4,37.0,30.07,NW,315,0.0,1.0,73,0.00,,,0.00,weatherlink.com 1.10,2013-02-15 15:03:00,
2013-02-15 10:19:00,47.3,36.0,30.06,NW,319,2.0,4.0,64,0.00,,,0.00,weatherlink.com 1.10,2013-02-15 15:19:00,
2013-02-15 10:34:00,48.5,36.0,30.06,NNW,340,7.0,7.0,62,0.00,,,0.00,weatherlink.com 1.10,2013-02-15 15:34:00,
2013-02-15 10:49:00,49.2,35.0,30.05,NNE,26,3.0,11.0,59,0.00,,,0.00,weatherlink.com 1.10,2013-02-15 15:49:00,
2013-02-15 11:04:00,49.6,36.0,30.05,West,262,4.0,8.0,59,0.00,,,0.00,weatherlink.com 1.10,2013-02-15 16:04:00,
2013-02-15 11:19:00,50.2,36.0,30.05,NNW,333,5.0,9.0,58,0.00,,,0.00,weatherlink.com 1.10,2013-02-15 16:19:00,
2013-02-15 11:34:00,51.0,36.0,30.04,NW,319,2.0,7.0,56,0.00,,,0.00,weatherlink.com 1.10,2013-02-15 16:34:00,
2013-02-15 11:49:00,51.8,35.0,30.03,West,277,1.0,8.0,54,0.00,,,0.00,weatherlink.com 1.10,2013-02-15 16:49:00,
2013-02-15 12:04:00,52.1,36.0,30.02,West,271,3.0,7.0,55,0.00,,,0.00,weatherlink.com 1.10,2013-02-15 17:04:00,
2013-02-15 12:19:00,53.4,36.0,30.02,North,5,6.0,8.0,52,0.00,,,0.00,weatherlink.com 1.10,2013-02-15 17:19:00,
2013-02-15 12:34:00,54.2,37.0,30.01,WNW,284,2.0,8.0,52,0.00,,,0.00,weatherlink.com 1.10,2013-02-15 17:34:00,
2013-02-15 12:49:00,53.2,35.0,30.00,NNW,327,2.0,9.0,51,0.00,,,0.00,weatherlink.com 1.10,2013-02-15 17:49:00,
2013-02-15 13:04:00,53.6,36.0,29.98,West,267,2.0,6.0,51,0.00,,,0.00,weatherlink.com 1.10,2013-02-15 18:04:00,
2013-02-15 13:19:00,54.4,36.0,29.98,North,11,4.0,6.0,50,0.00,,,0.00,weatherlink.com 1.10,2013-02-15 18:19:00,
2013-02-15 13:34:00,54.5,35.0,29.98,NW,323,0.0,9.0,48,0.00,,,0.00,weatherlink.com 1.10,2013-02-15 18:34:00,
2013-02-15 13:49:00,54.4,35.0,29.97,West,278,3.0,10.0,49,0.00,,,0.00,weatherlink.com 1.10,2013-02-15 18:49:00,
2013-02-15 14:04:00,54.1,36.0,29.97,North,5,3.0,10.0,51,0.00,,,0.00,weatherlink.com 1.10,2013-02-15 19:04:00,
2013-02-15 14:19:00,53.6,36.0,29.96,WSW,244,4.0,8.0,52,0.00,,,0.00,weatherlink.com 1.10,2013-02-15 19:19:00,
2013-02-15 14:34:00,54.6,35.0,29.96,NNW,336,1.0,10.0,48,0.00,,,0.00,weatherlink.com 1.10,2013-02-15 19:34:00,
2013-02-15 14:49:00,54.0,36.0,29.96,NW,325,6.0,12.0,50,0.00,,,0.00,weatherlink.com 1.10,2013-02-15 19:49:00,
2013-02-15 15:04:00,52.9,35.0,29.95,NNW,345,3.0,11.0,52,0.00,,,0.00,weatherlink.com 1.10,2013-02-15 20:04:00,
2013-02-15 15:19:00,52.9,36.0,29.95,WNW,288,2.0,10.0,53,0.00,,,0.00,weatherlink.com 1.10,2013-02-15 20:19:00,
2013-02-15 15:34:00,51.0,38.0,29.96,West,268,2.0,11.0,61,0.00,,,0.00,weatherlink.com 1.10,2013-02-15 20:34:00,
2013-02-15 15:49:00,48.6,39.0,29.97,NNE,28,0.0,7.0,69,0.00,,,0.00,weatherlink.com 1.10,2013-02-15 20:49:00,
2013-02-15 16:04:00,47.8,40.0,29.98,SE,140,6.0,8.0,73,0.00,,,0.00,weatherlink.com 1.10,2013-02-15 21:04:00,
2013-02-15 16:19:00,46.0,39.0,29.98,SE,130,0.0,8.0,75,0.00,,,0.00,weatherlink.com 1.10,2013-02-15 21:19:00,
2013-02-15 16:34:00,44.9,38.0,29.99,WNW,288,0.0,5.0,76,0.00,,,0.00,weatherlink.com 1.10,2013-02-15 21:34:00,
2013-02-15 16:49:00,44.3,38.0,30.00,North,351,5.0,7.0,77,0.00,,,0.00,weatherlink.com 1.10,2013-02-15 21:49:00,
2013-02-15 17:04:00,44.1,38.0,30.00,WNW,297,0.0,5.0,78,0.00,,,0.00,weatherlink.com 1.10,2013-02-15 22:04:00,
2013-02-15 17:19:00,43.8,38.0,30.01,WNW,299,0.0,4.0,79,0.00,,,0.00,weatherlink.com 1.10,2013-02-15 22:19:00,
2013-02-15 17:34:00,43.3,37.0,30.02,SSW,209,0.0,7.0,79,0.00,,,0.00,weatherlink.com 1.10,2013-02-15 22:34:00,
2013-02-15 17:49:00,42.9,36.0,30.02,West,269,0.0,5.0,78,0.00,,,0.00,weatherlink.com 1.10,2013-02-15 22:49:00,
2013-02-15 18:04:00,42.3,37.0,30.03,WSW,250,1.0,5.0,80,0.00,,,0.00,weatherlink.com 1.10,2013-02-15 23:04:00,
2013-02-15 18:19:00,41.6,36.0,30.03,SSW,195,0.0,11.0,81,0.00,,,0.00,weatherlink.com 1.10,2013-02-15 23:19:00,
2013-02-15 18:34:00,40.8,36.0,30.04,East,94,0.0,4.0,82,0.01,,,0.01,weatherlink.com 1.10,2013-02-15 23:34:00,
2013-02-15 18:49:00,39.9,36.0,30.05,SW,216,0.0,3.0,85,0.01,,,0.01,weatherlink.com 1.10,2013-02-15 23:49:00,
2013-02-15 19:04:00,39.4,35.0,30.05,SSE,167,1.0,3.0,85,0.01,,,0.01,weatherlink.com 1.10,2013-02-16 00:04:00,
2013-02-15 19:19:00,39.1,35.0,30.06,SSE,166,0.0,1.0,85,0.01,,,0.01,weatherlink.com 1.10,2013-02-16 00:19:00,
2013-02-15 19:34:00,38.9,35.0,30.07,North,350,2.0,2.0,86,0.00,,,0.01,weatherlink.com 1.10,2013-02-16 00:34:00,
2013-02-15 19:49:00,38.3,35.0,30.07,North,350,0.0,2.0,87,0.00,,,0.01,weatherlink.com 1.10,2013-02-16 00:49:00,
2013-02-15 20:04:00,37.9,35.0,30.07,North,350,0.0,1.0,88,0.01,,,0.02,weatherlink.com 1.10,2013-02-16 01:04:00,
2013-02-15 20:19:00,37.8,35.0,30.07,North,349,0.0,1.0,90,0.02,,,0.03,weatherlink.com 1.10,2013-02-16 01:19:00,
2013-02-15 20:34:00,37.5,35.0,30.07,NNW,345,0.0,3.0,90,0.02,,,0.03,weatherlink.com 1.10,2013-02-16 01:34:00,
2013-02-15 20:49:00,37.4,35.0,30.08,NNW,345,0.0,2.0,90,0.02,,,0.03,weatherlink.com 1.10,2013-02-16 01:49:00,
2013-02-15 21:04:00,37.3,35.0,30.08,NNW,346,0.0,1.0,91,0.02,,,0.04,weatherlink.com 1.10,2013-02-16 02:04:00,
2013-02-15 21:19:00,36.3,34.0,30.08,NNW,346,0.0,1.0,91,0.02,,,0.05,weatherlink.com 1.10,2013-02-16 02:19:00,
2013-02-15 21:34:00,34.8,33.0,30.08,NNE,28,0.0,1.0,92,0.02,,,0.05,weatherlink.com 1.10,2013-02-16 02:34:00,
2013-02-15 21:49:00,33.8,32.0,30.08,North,360,2.0,5.0,93,0.02,,,0.05,weatherlink.com 1.10,2013-02-16 02:49:00,
2013-02-15 22:04:00,33.7,32.0,30.08,ESE,119,1.0,2.0,93,0.01,,,0.05,weatherlink.com 1.10,2013-02-16 03:04:00,
2013-02-15 22:19:00,33.8,32.0,30.09,NE,35,0.0,3.0,94,0.00,,,0.05,weatherlink.com 1.10,2013-02-16 03:19:00,
2013-02-15 22:34:00,33.8,32.0,30.09,NE,51,0.0,0.0,94,0.00,,,0.05,weatherlink.com 1.10,2013-02-16 03:34:00,
2013-02-15 22:49:00,33.7,32.0,30.08,NE,50,0.0,0.0,94,0.00,,,0.05,weatherlink.com 1.10,2013-02-16 03:49:00,
2013-02-15 23:04:00,33.7,32.0,30.07,NE,51,0.0,0.0,94,0.00,,,0.05,weatherlink.com 1.10,2013-02-16 04:04:00,
2013-02-15 23:19:00,33.9,32.0,30.07,NE,50,0.0,0.0,94,0.00,,,0.05,weatherlink.com 1.10,2013-02-16 04:19:00,
2013-02-15 23:34:00,33.7,32.0,30.07,NE,51,0.0,0.0,94,0.01,,,0.06,weatherlink.com 1.10,2013-02-16 04:34:00,
2013-02-15 23:49:00,33.8,32.0,30.06,NE,51,0.0,0.0,94,0.01,,,0.06,weatherlink.com 1.10,2013-02-16 04:49:00,